Time;durP1;ratioP1;P1;durP2;ratioP2;P2;SDS_P1;SDS_P2;PMS_P1;PMS_P2;Temp;Humidity;BMP_temperature;BMP_pressure;BME280_temperature;BME280_humidity;BME280_pressure;Samples;Min_cycle;Max_cycle;Signal;HPM_P1;HPM_P2
2021/03/12 00:04:03;;;;;;;9.57;2.53;;;;;7.20;100108.00;;;;10484186;28;20217;-77
2021/03/12 00:09:05;;;;;;;7.83;1.87;;;;;7.20;100118.00;;;;10524880;28;20900;-77
2021/03/12 00:14:16;;;;;;;7.37;2.10;;;;;7.10;100133.00;;;;10525334;28;20209;-77
2021/03/12 00:19:17;;;;;;;15.53;2.97;;;;;7.10;100136.00;;;;10490933;28;20246;-77
2021/03/12 00:24:19;;;;;;;11.67;2.33;;;;;7.10;100156.00;;;;10524727;28;20215;-77
2021/03/12 00:29:22;;;;;;;14.73;2.10;;;;;7.10;100156.00;;;;10491252;28;20189;-77
2021/03/12 00:34:23;;;;;;;9.57;2.50;;;;;7.10;100166.00;;;;10523676;28;20207;-77
2021/03/12 00:39:24;;;;;;;8.80;1.87;;;;;7.10;100179.00;;;;10538685;28;20203;-77
2021/03/12 00:44:42;;;;;;;9.03;2.13;;;;;7.10;100191.00;;;;10520920;28;20203;-77
2021/03/12 00:49:44;;;;;;;8.93;2.40;;;;;7.00;100203.00;;;;10535116;28;20197;-77
2021/03/12 00:54:46;;;;;;;10.97;2.47;;;;;6.90;100211.00;;;;10522887;28;20189;-77
2021/03/12 00:59:57;;;;;;;11.23;2.23;;;;;6.80;100204.00;;;;10506915;28;20681;-77
2021/03/12 01:04:58;;;;;;;11.80;2.73;;;;;6.90;100210.00;;;;10506349;28;20215;-77
2021/03/12 01:10:03;;;;;;;14.17;2.37;;;;;7.00;100228.00;;;;10495883;28;20205;-77
2021/03/12 01:15:12;;;;;;;12.27;1.93;;;;;7.00;100206.00;;;;10493998;28;20201;-77
2021/03/12 01:20:19;;;;;;;9.97;2.70;;;;;7.00;100213.00;;;;10469886;28;20271;-77
2021/03/12 01:25:24;;;;;;;15.90;3.03;;;;;7.10;100230.00;;;;10480833;28;20231;-77
2021/03/12 01:30:34;;;;;;;11.43;2.33;;;;;7.10;100233.00;;;;10464289;28;20189;-77
2021/03/12 01:35:51;;;;;;;13.00;2.30;;;;;7.10;100230.00;;;;10463358;28;20530;-77
2021/03/12 01:40:54;;;;;;;8.83;1.40;;;;;7.10;100227.00;;;;10497119;28;20671;-77
2021/03/12 01:45:57;;;;;;;9.53;1.63;;;;;7.10;100243.00;;;;10504609;28;20648;-77
2021/03/12 01:51:06;;;;;;;11.73;2.37;;;;;7.10;100242.00;;;;10506160;28;20227;-77
2021/03/12 01:56:09;;;;;;;13.67;2.13;;;;;7.10;100240.00;;;;10537722;28;20675;-77
2021/03/12 02:01:21;;;;;;;12.50;2.17;;;;;7.10;100225.00;;;;10503335;28;20683;-77
2021/03/12 02:06:29;;;;;;;5.60;1.90;;;;;7.10;100238.00;;;;10503851;28;20598;-77
2021/03/12 02:11:34;;;;;;;6.10;1.90;;;;;7.10;100244.00;;;;10526530;28;20217;-77
2021/03/12 02:16:42;;;;;;;10.07;2.33;;;;;6.90;100240.00;;;;10521198;28;20659;-77
2021/03/12 02:21:52;;;;;;;6.63;2.27;;;;;6.90;100249.00;;;;10503529;28;20267;-77
2021/03/12 02:27:08;;;;;;;12.57;2.53;;;;;7.00;100252.00;;;;10521092;28;20280;-77
2021/03/12 02:32:24;;;;;;;15.03;2.47;;;;;6.90;100249.00;;;;10510304;28;20184;-77
2021/03/12 02:37:26;;;;;;;14.47;2.53;;;;;6.90;100247.00;;;;10480634;28;20718;-77
2021/03/12 02:42:29;;;;;;;10.73;2.17;;;;;6.70;100263.00;;;;10528031;28;20200;-77
2021/03/12 02:47:31;;;;;;;15.83;2.47;;;;;6.70;100252.00;;;;10511044;28;20208;-77
2021/03/12 02:52:44;;;;;;;12.00;2.47;;;;;6.70;100249.00;;;;10494060;28;20614;-77
2021/03/12 02:57:48;;;;;;;12.67;2.57;;;;;6.70;100255.00;;;;10510960;28;20272;-77
2021/03/12 03:02:49;;;;;;;9.00;2.23;;;;;6.80;100256.00;;;;10510925;28;20808;-77
2021/03/12 03:08:07;;;;;;;7.87;1.97;;;;;6.80;100255.00;;;;10527708;28;20203;-77
2021/03/12 03:13:10;;;;;;;16.80;3.53;;;;;6.70;100261.00;;;;10526945;28;20801;-77
2021/03/12 03:18:12;;;;;;;13.63;2.83;;;;;6.70;100274.00;;;;10493776;28;20189;-77
2021/03/12 03:23:19;;;;;;;11.17;2.40;;;;;6.50;100261.00;;;;10494048;28;20201;-77
2021/03/12 03:28:25;;;;;;;11.83;1.90;;;;;6.50;100265.00;;;;10509561;28;20244;-77
2021/03/12 03:33:29;;;;;;;6.57;2.10;;;;;6.50;100263.00;;;;10510739;28;20571;-77
2021/03/12 03:38:32;;;;;;;14.50;2.27;;;;;6.40;100252.00;;;;10509651;28;20189;-77
2021/03/12 03:43:38;;;;;;;12.07;1.90;;;;;6.30;100266.00;;;;10526282;28;20204;-77
2021/03/12 03:48:44;;;;;;;13.20;3.07;;;;;6.30;100274.00;;;;10510133;28;20197;-77
2021/03/12 03:53:50;;;;;;;10.00;2.40;;;;;6.30;100285.00;;;;10511544;28;20189;-77
2021/03/12 03:58:53;;;;;;;17.17;3.13;;;;;6.30;100286.00;;;;10544671;28;20712;-77
2021/03/12 04:03:55;;;;;;;17.00;2.60;;;;;6.30;100291.00;;;;10510249;28;20208;-77
2021/03/12 04:09:02;;;;;;;12.43;2.93;;;;;6.30;100285.00;;;;10545071;28;20204;-77
2021/03/12 04:14:04;;;;;;;18.80;2.87;;;;;6.20;100286.00;;;;10510394;28;20262;-77
2021/03/12 04:19:09;;;;;;;15.03;2.50;;;;;6.10;100291.00;;;;10510605;28;20192;-77
2021/03/12 04:24:11;;;;;;;17.17;2.80;;;;;6.10;100304.00;;;;10510456;28;20211;-77
2021/03/12 04:29:15;;;;;;;14.30;3.40;;;;;6.00;100297.00;;;;10493112;28;20197;-77
2021/03/12 04:34:19;;;;;;;12.67;2.67;;;;;6.00;100300.00;;;;10526257;28;20189;-77
2021/03/12 04:39:22;;;;;;;14.23;3.87;;;;;5.80;100301.00;;;;10508994;28;20717;-77
2021/03/12 04:44:25;;;;;;;18.53;3.40;;;;;5.70;100306.00;;;;10492271;28;20706;-77
2021/03/12 04:49:26;;;;;;;14.67;2.73;;;;;5.60;100319.00;;;;10509195;28;20197;-77
2021/03/12 04:54:33;;;;;;;15.33;2.63;;;;;5.60;100323.00;;;;10492665;28;20177;-77
2021/03/12 04:59:35;;;;;;;13.90;3.07;;;;;5.50;100321.00;;;;10509395;28;20199;-77
2021/03/12 05:04:40;;;;;;;20.20;3.63;;;;;5.40;100305.00;;;;10501043;28;20228;-77
2021/03/12 05:09:42;;;;;;;15.13;2.73;;;;;5.40;100311.00;;;;10475189;28;20199;-77
2021/03/12 05:14:49;;;;;;;13.00;2.97;;;;;5.20;100314.00;;;;10526057;28;20217;-77
2021/03/12 05:19:51;;;;;;;12.37;3.40;;;;;5.30;100320.00;;;;10491788;28;20184;-77
2021/03/12 05:24:53;;;;;;;15.20;3.00;;;;;5.30;100325.00;;;;10525485;28;20208;-77
2021/03/12 05:29:55;;;;;;;16.43;3.57;;;;;5.30;100333.00;;;;10507564;28;20189;-77
2021/03/12 05:34:57;;;;;;;16.00;4.20;;;;;5.30;100317.00;;;;10496386;28;20185;-77
2021/03/12 05:40:04;;;;;;;16.63;2.23;;;;;5.40;100332.00;;;;10513616;28;20659;-77
2021/03/12 05:45:09;;;;;;;14.57;3.10;;;;;5.40;100338.00;;;;10523481;28;20296;-77
2021/03/12 05:50:20;;;;;;;12.73;2.33;;;;;5.50;100320.00;;;;10492983;28;20280;-77
2021/03/12 05:55:21;;;;;;;15.93;3.47;;;;;5.60;100315.00;;;;10524673;28;20181;-77
2021/03/12 06:00:23;;;;;;;16.20;3.67;;;;;5.60;100332.00;;;;10491617;28;20659;-77
2021/03/12 06:05:28;;;;;;;12.97;3.60;;;;;5.70;100326.00;;;;10507021;28;20330;-77
2021/03/12 06:10:30;;;;;;;23.00;3.30;;;;;5.80;100319.00;;;;10524375;28;20549;-77
2021/03/12 06:15:40;;;;;;;16.90;4.03;;;;;5.90;100335.00;;;;10508657;28;20181;-77
2021/03/12 06:20:47;;;;;;;14.57;3.17;;;;;5.90;100321.00;;;;10523871;28;20714;-77
2021/03/12 06:25:52;;;;;;;14.27;3.60;;;;;6.00;100313.00;;;;10523872;28;20209;-77
2021/03/12 06:30:59;;;;;;;16.70;3.27;;;;;6.10;100318.00;;;;10507474;28;20197;-77
2021/03/12 06:36:34;;;;;;;17.90;3.77;;;;;6.20;100324.00;;;;10538645;28;20177;-77
2021/03/12 06:41:56;;;;;;;16.20;3.27;;;;;6.30;100321.00;;;;10540272;28;20209;-77
2021/03/12 06:47:07;;;;;;;14.57;4.00;;;;;6.40;100330.00;;;;10489677;28;20283;-77
2021/03/12 06:52:10;;;;;;;23.10;4.20;;;;;6.50;100332.00;;;;10505736;28;20185;-77
2021/03/12 06:57:21;;;;;;;20.57;5.20;;;;;6.60;100322.00;;;;10491349;28;20607;-77
2021/03/12 07:02:49;;;;;;;21.90;4.40;;;;;6.80;100316.00;;;;10470847;28;20221;-77
2021/03/12 07:08:04;;;;;;;20.63;3.90;;;;;6.90;100317.00;;;;10448286;28;20980;-77
2021/03/12 07:13:16;;;;;;;17.30;3.10;;;;;7.00;100304.00;;;;10469783;28;20243;-78
2021/03/12 07:18:22;;;;;;;17.37;3.83;;;;;7.10;100317.00;;;;10469147;28;20242;-77
2021/03/12 07:23:28;;;;;;;16.80;2.77;;;;;7.10;100311.00;;;;10504093;28;20201;-77
2021/03/12 07:28:33;;;;;;;23.77;4.33;;;;;7.30;100285.00;;;;10521473;28;20316;-77
2021/03/12 07:34:10;;;;;;;16.50;3.70;;;;;7.60;100307.00;;;;10523445;28;20227;-77
2021/03/12 07:39:44;;;;;;;12.80;3.37;;;;;7.70;100305.00;;;;10488478;28;20220;-77
2021/03/12 07:44:52;;;;;;;16.10;3.50;;;;;7.80;100303.00;;;;10478627;28;20261;-77
2021/03/12 07:50:35;;;;;;;14.90;4.23;;;;;8.00;100306.00;;;;10519657;28;20192;-77
2021/03/12 07:55:45;;;;;;;15.77;4.33;;;;;8.10;100306.00;;;;10526137;28;20181;-77
2021/03/12 08:01:07;;;;;;;17.47;4.23;;;;;8.00;100304.00;;;;10493210;28;20188;-78
2021/03/12 08:06:21;;;;;;;16.53;5.17;;;;;8.10;100321.00;;;;10519113;28;20285;-77
2021/03/12 08:11:51;;;;;;;20.43;4.77;;;;;8.40;100307.00;;;;10517882;28;20216;-78
2021/03/12 08:17:18;;;;;;;11.70;2.93;;;;;8.90;100307.00;;;;10549879;28;20192;-77
2021/03/12 08:22:53;;;;;;;18.77;4.20;;;;;9.40;100315.00;;;;10475606;28;20216;-78
2021/03/12 08:28:07;;;;;;;17.37;4.40;;;;;9.40;100306.00;;;;10512549;28;20185;-77
2021/03/12 08:33:20;;;;;;;17.03;4.07;;;;;9.30;100318.00;;;;10535753;28;20214;-77
2021/03/12 08:38:48;;;;;;;15.23;5.60;;;;;9.00;100310.00;;;;10521575;28;20204;-77
2021/03/12 08:44:13;;;;;;;14.47;3.13;;;;;8.70;100305.00;;;;10531678;28;20200;-78
2021/03/12 08:49:34;;;;;;;17.23;3.87;;;;;9.10;100296.00;;;;10516096;28;20197;-78
2021/03/12 08:54:53;;;;;;;22.07;4.37;;;;;8.90;100311.00;;;;10494571;28;20195;-78
2021/03/12 09:00:07;;;;;;;21.37;4.00;;;;;8.80;100293.00;;;;10518548;28;20189;-78
2021/03/12 09:05:28;;;;;;;14.87;4.07;;;;;9.00;100293.00;;;;10517478;28;20204;-77
2021/03/12 09:10:51;;;;;;;22.90;4.33;;;;;9.40;100288.00;;;;10494024;28;20203;-77
2021/03/12 09:16:04;;;;;;;13.50;3.57;;;;;10.10;100270.00;;;;10548525;28;20184;-74
2021/03/12 09:21:21;;;;;;;16.53;3.77;;;;;11.00;100262.00;;;;10515884;28;20192;-75
2021/03/12 09:26:27;;;;;;;15.80;4.50;;;;;10.90;100254.00;;;;10496356;28;20659;-75
2021/03/12 09:31:41;;;;;;;17.73;3.83;;;;;10.90;100271.00;;;;10521423;28;20216;-75
2021/03/12 09:36:50;;;;;;;14.17;3.60;;;;;10.80;100257.00;;;;10505371;28;20220;-76
2021/03/12 09:42:08;;;;;;;16.57;3.30;;;;;11.00;100244.00;;;;10491026;28;20209;-76
2021/03/12 09:47:19;;;;;;;13.30;3.53;;;;;11.30;100252.00;;;;10530139;28;20188;-76
2021/03/12 09:52:32;;;;;;;11.87;3.60;;;;;11.60;100223.00;;;;10547012;28;20180;-76
2021/03/12 09:57:43;;;;;;;18.27;3.50;;;;;11.90;100216.00;;;;10546736;28;20227;-76
2021/03/12 10:02:55;;;;;;;16.37;3.53;;;;;13.00;100210.00;;;;10505125;28;20220;-76
2021/03/12 10:08:15;;;;;;;14.33;2.90;;;;;12.20;100203.00;;;;10511051;28;20208;-76
2021/03/12 10:13:36;;;;;;;18.73;3.83;;;;;11.90;100200.00;;;;10486476;28;20242;-76
2021/03/12 10:18:56;;;;;;;13.67;2.20;;;;;11.70;100195.00;;;;10514450;28;20216;-76
2021/03/12 10:23:58;;;;;;;15.07;3.00;;;;;11.50;100203.00;;;;10530576;28;20228;-76
2021/03/12 10:29:02;;;;;;;13.83;2.87;;;;;11.30;100171.00;;;;10507975;28;20195;-76
2021/03/12 10:34:03;;;;;;;13.73;2.67;;;;;12.00;100175.00;;;;10517361;28;20852;-76
2021/03/12 10:39:04;;;;;;;16.93;3.57;;;;;12.00;100168.00;;;;10503499;28;20206;-76
2021/03/12 10:44:07;;;;;;;13.50;3.00;;;;;11.80;100158.00;;;;10552085;28;20218;-76
2021/03/12 10:49:27;;;;;;;13.90;3.70;;;;;12.00;100148.00;;;;10514399;28;20190;-76
2021/03/12 10:54:29;;;;;;;11.30;2.60;;;;;12.60;100138.00;;;;10521298;28;20192;-76
2021/03/12 10:59:31;;;;;;;15.83;3.23;;;;;13.50;100120.00;;;;10511254;28;20725;-76
2021/03/12 11:04:33;;;;;;;15.50;2.83;;;;;13.60;100109.00;;;;10531726;28;20205;-77
2021/03/12 11:09:34;;;;;;;14.07;3.57;;;;;13.30;100115.00;;;;10531878;28;20176;-76
2021/03/12 11:14:35;;;;;;;13.23;3.53;;;;;12.60;100097.00;;;;10532535;28;20209;-76
2021/03/12 11:19:37;;;;;;;13.47;3.07;;;;;12.00;100103.00;;;;10509398;28;20212;-75
2021/03/12 11:24:39;;;;;;;16.47;3.40;;;;;12.50;100105.00;;;;10526145;28;20205;-76
2021/03/12 11:29:42;;;;;;;16.47;3.50;;;;;12.00;100103.00;;;;10492260;28;20200;-76
2021/03/12 11:34:45;;;;;;;12.10;2.80;;;;;11.60;100095.00;;;;10504348;28;20200;-76
2021/03/12 11:39:46;;;;;;;16.07;3.50;;;;;11.40;100099.00;;;;10519154;28;20234;-76
2021/03/12 11:44:48;;;;;;;15.67;3.20;;;;;11.80;100073.00;;;;10528400;28;20213;-76
2021/03/12 11:49:49;;;;;;;15.30;3.30;;;;;12.10;100066.00;;;;10551205;28;20544;-76
2021/03/12 11:54:51;;;;;;;15.77;3.83;;;;;12.30;100040.00;;;;10516028;28;20242;-76
2021/03/12 11:59:53;;;;;;;15.07;2.80;;;;;12.50;100050.00;;;;10494854;28;20196;-76
2021/03/12 12:04:55;;;;;;;10.47;2.47;;;;;12.60;100003.00;;;;10495739;28;20216;-75
2021/03/12 12:09:56;;;;;;;18.10;2.80;;;;;12.30;99993.00;;;;10507371;28;20737;-76
2021/03/12 12:14:58;;;;;;;13.60;3.80;;;;;13.00;99992.00;;;;10534295;28;20239;-76
2021/03/12 12:20:02;;;;;;;13.33;2.73;;;;;12.60;99985.00;;;;10535483;28;20189;-76
2021/03/12 12:25:05;;;;;;;13.50;3.20;;;;;12.00;100000.00;;;;10507306;28;20249;-76
2021/03/12 12:30:08;;;;;;;12.53;3.10;;;;;12.40;99978.00;;;;10506552;28;20870;-76
2021/03/12 12:35:10;;;;;;;13.40;2.60;;;;;12.20;99974.00;;;;10484689;28;20186;-75
2021/03/12 12:40:12;;;;;;;10.53;2.67;;;;;12.00;99975.00;;;;10523982;28;20467;-75
2021/03/12 12:45:15;;;;;;;10.50;1.97;;;;;11.50;99961.00;;;;10520067;28;20262;-76
2021/03/12 12:50:18;;;;;;;17.90;3.30;;;;;10.90;99965.00;;;;10531862;28;20200;-76
2021/03/12 12:55:19;;;;;;;12.23;3.07;;;;;10.80;99947.00;;;;10512157;28;20261;-76
2021/03/12 13:00:21;;;;;;;15.40;3.57;;;;;10.90;99938.00;;;;10523945;28;20219;-76
2021/03/12 13:05:22;;;;;;;9.27;2.57;;;;;11.10;99922.00;;;;10521336;28;20267;-77
2021/03/12 13:10:24;;;;;;;10.37;2.27;;;;;11.70;99909.00;;;;10521954;28;20582;-77
2021/03/12 13:15:25;;;;;;;10.40;2.43;;;;;12.30;99913.00;;;;10508894;28;20274;-77
2021/03/12 13:20:28;;;;;;;9.33;2.63;;;;;12.20;99884.00;;;;10523635;28;20201;-77
2021/03/12 13:25:29;;;;;;;9.63;2.43;;;;;12.30;99893.00;;;;10481824;28;20212;-77
2021/03/12 13:30:31;;;;;;;7.67;2.20;;;;;11.90;99859.00;;;;10504485;28;20865;-77
2021/03/12 13:35:33;;;;;;;15.33;2.60;;;;;12.40;99861.00;;;;10536039;28;20181;-77
2021/03/12 13:40:35;;;;;;;10.17;2.27;;;;;12.00;99857.00;;;;10531613;28;20217;-77
2021/03/12 13:45:38;;;;;;;7.13;2.47;;;;;12.30;99851.00;;;;10504875;28;20220;-77
2021/03/12 13:50:41;;;;;;;6.17;1.90;;;;;12.50;99836.00;;;;10519455;28;20717;-77
2021/03/12 13:55:43;;;;;;;8.77;2.50;;;;;12.20;99843.00;;;;10512809;28;20199;-76
2021/03/12 14:00:45;;;;;;;7.53;2.27;;;;;11.50;99840.00;;;;10503312;28;20736;-77
2021/03/12 14:05:46;;;;;;;6.50;2.03;;;;;12.00;99822.00;;;;10503440;28;20244;-77
2021/03/12 14:10:47;;;;;;;8.47;1.63;;;;;12.30;99839.00;;;;10534250;28;20188;-77
2021/03/12 14:15:49;;;;;;;5.23;2.10;;;;;12.50;99839.00;;;;10492996;28;20215;-77
2021/03/12 14:20:50;;;;;;;4.87;1.57;;;;;13.10;99837.00;;;;10506696;28;20271;-77
2021/03/12 14:25:53;;;;;;;6.90;2.20;;;;;13.10;99846.00;;;;10517030;28;20590;-77
2021/03/12 14:31:13;;;;;;;6.07;1.60;;;;;12.80;99829.00;;;;10534063;28;20191;-77
2021/03/12 14:36:15;;;;;;;4.67;1.10;;;;;12.10;99830.00;;;;10553335;28;20196;-77
2021/03/12 14:41:16;;;;;;;3.17;0.83;;;;;11.80;99840.00;;;;10515300;28;20185;-77
2021/03/12 14:46:19;;;;;;;1.70;0.80;;;;;11.60;99826.00;;;;10544013;28;20193;-76
2021/03/12 14:51:28;;;;;;;4.63;1.30;;;;;11.50;99833.00;;;;10488339;28;20197;-77
2021/03/12 14:56:30;;;;;;;1.60;1.43;;;;;11.50;99826.00;;;;10489260;28;20181;-77
2021/03/12 15:01:33;;;;;;;3.67;1.30;;;;;11.40;99819.00;;;;10500903;28;20209;-77
2021/03/12 15:06:36;;;;;;;4.27;1.37;;;;;11.40;99818.00;;;;10487932;28;20192;-77
2021/03/12 15:11:38;;;;;;;5.73;2.77;;;;;11.40;99812.00;;;;10508852;28;20212;-77
2021/03/12 15:16:41;;;;;;;5.57;1.70;;;;;11.50;99807.00;;;;10484422;28;20193;-77
2021/03/12 15:21:46;;;;;;;4.33;2.03;;;;;11.50;99798.00;;;;10475357;28;20196;-77
2021/03/12 15:26:47;;;;;;;5.03;1.37;;;;;11.50;99799.00;;;;10523441;28;20729;-77
2021/03/12 15:31:49;;;;;;;3.17;1.80;;;;;11.50;99789.00;;;;10486664;28;20607;-77
2021/03/12 15:36:51;;;;;;;3.80;1.30;;;;;11.30;99793.00;;;;10483695;28;20197;-77
2021/03/12 15:41:57;;;;;;;5.07;1.97;;;;;11.10;99792.00;;;;10525730;28;20223;-77
2021/03/12 15:47:01;;;;;;;4.83;1.37;;;;;11.00;99782.00;;;;10526977;28;20185;-77
2021/03/12 15:52:06;;;;;;;4.27;1.80;;;;;10.90;99790.00;;;;10519062;28;20609;-76
2021/03/12 15:57:08;;;;;;;6.73;1.67;;;;;10.80;99775.00;;;;10506121;28;20237;-77
2021/03/12 16:02:16;;;;;;;5.37;1.20;;;;;10.70;99773.00;;;;10492845;28;20308;-77
2021/03/12 16:07:21;;;;;;;3.13;1.30;;;;;10.70;99764.00;;;;10506713;28;20204;-77
2021/03/12 16:12:23;;;;;;;2.87;1.00;;;;;10.80;99774.00;;;;10523985;28;20205;-77
2021/03/12 16:17:36;;;;;;;9.33;2.13;;;;;10.70;99786.00;;;;10507645;28;20197;-77
2021/03/12 16:22:58;;;;;;;9.37;1.47;;;;;10.40;99782.00;;;;10526809;28;20208;-77
2021/03/12 16:28:13;;;;;;;3.70;1.50;;;;;10.30;99795.00;;;;10506713;28;20652;-76
2021/03/12 16:33:18;;;;;;;3.70;1.43;;;;;10.20;99790.00;;;;10507251;28;20192;-77
2021/03/12 16:38:43;;;;;;;4.57;1.43;;;;;10.40;99792.00;;;;10506923;28;20197;-76
2021/03/12 16:43:48;;;;;;;9.13;1.47;;;;;10.40;99786.00;;;;10508333;28;20200;-77
2021/03/12 16:48:50;;;;;;;6.97;1.83;;;;;10.30;99792.00;;;;10492100;28;20188;-77
2021/03/12 16:53:52;;;;;;;7.03;1.77;;;;;10.00;99787.00;;;;10525141;28;20181;-76
2021/03/12 16:58:53;;;;;;;4.97;1.60;;;;;9.80;99788.00;;;;10526841;28;20705;-77
2021/03/12 17:03:54;;;;;;;9.90;1.83;;;;;9.50;99784.00;;;;10530085;28;20354;-77
2021/03/12 17:08:59;;;;;;;9.33;1.67;;;;;9.40;99793.00;;;;10523745;28;20205;-76
2021/03/12 17:14:04;;;;;;;4.63;1.63;;;;;9.20;99793.00;;;;10486852;28;20208;-76
2021/03/12 17:19:06;;;;;;;8.33;1.90;;;;;9.00;99808.00;;;;10557428;28;20204;-76
2021/03/12 17:24:08;;;;;;;9.50;1.77;;;;;8.80;99805.00;;;;10512982;28;20258;-76
2021/03/12 17:29:11;;;;;;;5.80;1.50;;;;;8.50;99817.00;;;;10518846;28;20192;-76
2021/03/12 17:34:15;;;;;;;5.83;1.67;;;;;8.40;99823.00;;;;10536883;28;20294;-76
2021/03/12 17:39:17;;;;;;;6.83;1.90;;;;;8.40;99826.00;;;;10535839;28;20674;-75
2021/03/12 17:44:19;;;;;;;6.90;3.30;;;;;8.40;99833.00;;;;10519574;28;20221;-76
2021/03/12 17:49:20;;;;;;;7.83;1.93;;;;;8.50;99856.00;;;;10528341;28;20215;-75
2021/03/12 17:54:23;;;;;;;6.83;1.97;;;;;8.50;99852.00;;;;10529223;28;20177;-75
2021/03/12 17:59:25;;;;;;;4.97;1.63;;;;;8.40;99858.00;;;;10526614;28;20232;-75
2021/03/12 18:04:26;;;;;;;7.47;2.50;;;;;8.40;99864.00;;;;10528153;28;20251;-76
2021/03/12 18:09:28;;;;;;;9.97;2.03;;;;;8.30;99869.00;;;;10509503;28;20188;-76
2021/03/12 18:14:29;;;;;;;11.17;2.47;;;;;8.20;99864.00;;;;10504079;28;20276;-75
2021/03/12 18:19:31;;;;;;;10.80;2.17;;;;;8.10;99864.00;;;;10504063;28;20238;-75
2021/03/12 18:24:32;;;;;;;7.63;2.00;;;;;7.90;99864.00;;;;10521244;28;20283;-76
2021/03/12 18:29:33;;;;;;;8.63;2.40;;;;;7.90;99869.00;;;;10504613;28;20215;-77
2021/03/12 18:34:35;;;;;;;11.27;1.93;;;;;7.90;99862.00;;;;10487699;28;20204;-77
2021/03/12 18:39:37;;;;;;;4.67;1.27;;;;;7.90;99855.00;;;;10486844;28;20651;-77
2021/03/12 18:44:38;;;;;;;7.80;1.60;;;;;7.90;99867.00;;;;10504490;28;20212;-76
2021/03/12 18:49:41;;;;;;;6.40;1.57;;;;;7.90;99867.00;;;;10520287;28;20185;-77
2021/03/12 18:54:43;;;;;;;5.67;1.70;;;;;7.90;99870.00;;;;10520706;28;20223;-77
2021/03/12 18:59:44;;;;;;;5.67;1.20;;;;;7.80;99882.00;;;;10488055;28;20253;-77
2021/03/12 19:04:46;;;;;;;9.03;1.60;;;;;7.70;99871.00;;;;10503752;28;20205;-77
2021/03/12 19:09:47;;;;;;;5.00;1.20;;;;;7.70;99879.00;;;;10510476;28;20224;-77
2021/03/12 19:14:49;;;;;;;6.93;1.70;;;;;7.60;99867.00;;;;10508789;28;20244;-77
2021/03/12 19:19:51;;;;;;;2.57;0.90;;;;;7.60;99867.00;;;;10542890;28;20226;-77
2021/03/12 19:24:53;;;;;;;8.87;1.83;;;;;7.60;99885.00;;;;10542300;28;20279;-77
2021/03/12 19:29:54;;;;;;;8.27;2.00;;;;;7.50;99882.00;;;;10520022;28;20195;-77
2021/03/12 19:34:59;;;;;;;5.23;1.70;;;;;7.40;99885.00;;;;10535512;28;20192;-76
2021/03/12 19:40:06;;;;;;;7.87;1.43;;;;;7.30;99887.00;;;;10514855;28;20587;-76
2021/03/12 19:45:10;;;;;;;4.60;1.50;;;;;7.30;99868.00;;;;10540241;28;20242;-76
2021/03/12 19:50:13;;;;;;;4.80;1.63;;;;;7.30;99869.00;;;;10492584;28;20245;-76
2021/03/12 19:55:14;;;;;;;7.57;1.93;;;;;7.30;99870.00;;;;10507002;28;20208;-76
2021/03/12 20:00:17;;;;;;;5.07;1.87;;;;;7.30;99866.00;;;;10567593;28;20207;-76
2021/03/12 20:05:18;;;;;;;4.47;1.50;;;;;7.20;99864.00;;;;10529249;28;20209;-75
2021/03/12 20:10:19;;;;;;;4.67;1.03;;;;;7.20;99859.00;;;;10531732;28;20199;-76
2021/03/12 20:15:21;;;;;;;5.93;1.43;;;;;7.20;99860.00;;;;10536167;28;20208;-76
2021/03/12 20:20:22;;;;;;;4.47;1.50;;;;;7.20;99865.00;;;;10531813;28;20207;-75
2021/03/12 20:25:23;;;;;;;6.50;1.30;;;;;7.20;99865.00;;;;10533446;28;21041;-76
2021/03/12 20:30:25;;;;;;;4.47;1.43;;;;;7.20;99874.00;;;;10530506;28;20200;-75
2021/03/12 20:35:27;;;;;;;3.37;1.40;;;;;7.20;99881.00;;;;10522953;28;20192;-76
2021/03/12 20:40:34;;;;;;;9.03;1.70;;;;;7.20;99868.00;;;;10549717;28;20192;-76
2021/03/12 20:45:37;;;;;;;2.40;1.03;;;;;7.20;99879.00;;;;10563824;28;20283;-76
2021/03/12 20:50:40;;;;;;;2.17;1.20;;;;;7.10;99879.00;;;;10490082;28;20185;-76
2021/03/12 20:55:41;;;;;;;5.23;1.90;;;;;7.00;99890.00;;;;10557766;28;20236;-76
2021/03/12 21:00:42;;;;;;;5.47;1.60;;;;;7.00;99883.00;;;;10539773;28;20185;-76
2021/03/12 21:05:44;;;;;;;5.70;1.53;;;;;7.00;99873.00;;;;10524278;28;20211;-76
2021/03/12 21:10:46;;;;;;;4.33;1.50;;;;;7.00;99873.00;;;;10518769;28;20222;-76
2021/03/12 21:15:47;;;;;;;6.77;1.57;;;;;7.00;99868.00;;;;10517196;28;20192;-76
2021/03/12 21:20:49;;;;;;;4.10;1.83;;;;;7.00;99869.00;;;;10519314;28;20188;-76
2021/03/12 21:25:51;;;;;;;9.80;1.90;;;;;7.00;99875.00;;;;10515340;28;20197;-75
2021/03/12 21:30:53;;;;;;;4.83;1.90;;;;;6.90;99867.00;;;;10503219;28;20202;-76
2021/03/12 21:35:54;;;;;;;9.33;1.73;;;;;7.00;99859.00;;;;10510572;28;20208;-76
2021/03/12 21:40:56;;;;;;;6.83;1.80;;;;;7.00;99881.00;;;;10551573;28;21062;-76
2021/03/12 21:45:57;;;;;;;6.07;1.73;;;;;7.00;99872.00;;;;10520690;28;20220;-76
2021/03/12 21:51:02;;;;;;;9.00;2.33;;;;;7.00;99881.00;;;;10487631;28;20189;-77
2021/03/12 21:56:04;;;;;;;4.70;1.90;;;;;7.10;99873.00;;;;10477604;28;20181;-76
2021/03/12 22:01:05;;;;;;;12.23;2.63;;;;;7.00;99866.00;;;;10484044;28;20848;-76
2021/03/12 22:06:06;;;;;;;6.73;1.97;;;;;7.10;99864.00;;;;10507954;28;20215;-76
2021/03/12 22:11:08;;;;;;;8.87;3.37;;;;;7.10;99865.00;;;;10514952;28;20286;-77
2021/03/12 22:16:11;;;;;;;9.33;2.20;;;;;7.10;99873.00;;;;10518722;28;20223;-76
2021/03/12 22:21:13;;;;;;;9.10;2.27;;;;;7.00;99856.00;;;;10519505;28;20196;-75
2021/03/12 22:26:16;;;;;;;12.20;2.80;;;;;7.00;99854.00;;;;10500788;28;20296;-76
2021/03/12 22:31:19;;;;;;;9.17;1.93;;;;;7.00;99840.00;;;;10491710;28;20204;-76
2021/03/12 22:36:20;;;;;;;6.50;1.93;;;;;7.10;99833.00;;;;10515235;28;20195;-76
2021/03/12 22:41:21;;;;;;;5.83;2.57;;;;;7.20;99833.00;;;;10528116;28;20196;-76
2021/03/12 22:46:27;;;;;;;7.43;2.37;;;;;7.20;99811.00;;;;10539198;28;20201;-76
2021/03/12 22:51:29;;;;;;;6.17;2.00;;;;;7.20;99819.00;;;;10531577;28;20272;-76
2021/03/12 22:56:31;;;;;;;13.03;3.03;;;;;7.10;99794.00;;;;10534981;28;20243;-76
2021/03/12 23:01:39;;;;;;;5.10;2.23;;;;;7.10;99796.00;;;;10488993;28;20204;-77
2021/03/12 23:06:41;;;;;;;10.40;2.10;;;;;7.00;99787.00;;;;10492663;28;20311;-77
2021/03/12 23:11:42;;;;;;;6.37;2.00;;;;;7.00;99789.00;;;;10500263;28;20220;-78
2021/03/12 23:16:44;;;;;;;6.73;2.17;;;;;6.90;99778.00;;;;10509779;28;20212;-77
2021/03/12 23:21:45;;;;;;;7.37;2.40;;;;;6.80;99762.00;;;;10540449;28;20212;-79
2021/03/12 23:26:49;;;;;;;8.27;2.60;;;;;6.70;99753.00;;;;10580868;28;20208;-78
2021/03/12 23:32:02;;;;;;;10.03;2.50;;;;;6.70;99739.00;;;;10565249;28;20198;-78
2021/03/12 23:37:05;;;;;;;6.37;2.00;;;;;6.70;99714.00;;;;10502658;28;20192;-77
2021/03/12 23:42:07;;;;;;;5.37;2.40;;;;;6.70;99700.00;;;;10537025;28;20193;-78
2021/03/12 23:47:08;;;;;;;8.77;2.33;;;;;6.70;99692.00;;;;10523433;28;20227;-78
2021/03/12 23:52:10;;;;;;;7.47;2.20;;;;;6.60;99687.00;;;;10570617;28;20484;-77
2021/03/12 23:57:11;;;;;;;8.73;1.97;;;;;6.60;99691.00;;;;10496740;28;20674;-77
